sensor_id;sensor_type;location;lat;lon;timestamp;temperature;humidity
72591;SHT31;60625;51.212;5.952;2023-04-15T00:01:03;7.94;67.06
72591;SHT31;60625;51.212;5.952;2023-04-15T00:06:05;7.91;67.46
72591;SHT31;60625;51.212;5.952;2023-04-15T00:11:05;7.82;67.63
72591;SHT31;60625;51.212;5.952;2023-04-15T00:16:06;7.71;67.90
72591;SHT31;60625;51.212;5.952;2023-04-15T00:21:08;7.66;68.22
72591;SHT31;60625;51.212;5.952;2023-04-15T00:26:09;7.63;68.19
72591;SHT31;60625;51.212;5.952;2023-04-15T00:31:09;7.57;68.40
72591;SHT31;60625;51.212;5.952;2023-04-15T00:36:10;7.50;68.67
72591;SHT31;60625;51.212;5.952;2023-04-15T00:41:11;7.45;68.86
72591;SHT31;60625;51.212;5.952;2023-04-15T00:46:12;7.41;69.22
72591;SHT31;60625;51.212;5.952;2023-04-15T00:51:15;7.37;69.10
72591;SHT31;60625;51.212;5.952;2023-04-15T00:56:17;7.30;69.15
72591;SHT31;60625;51.212;5.952;2023-04-15T01:01:21;7.24;69.50
72591;SHT31;60625;51.212;5.952;2023-04-15T01:06:22;7.12;69.83
72591;SHT31;60625;51.212;5.952;2023-04-15T01:11:23;7.04;70.09
72591;SHT31;60625;51.212;5.952;2023-04-15T01:16:24;7.00;70.30
72591;SHT31;60625;51.212;5.952;2023-04-15T01:21:26;6.95;70.68
72591;SHT31;60625;51.212;5.952;2023-04-15T01:26:27;6.89;70.73
72591;SHT31;60625;51.212;5.952;2023-04-15T01:31:28;6.87;70.49
72591;SHT31;60625;51.212;5.952;2023-04-15T01:36:28;6.86;70.79
72591;SHT31;60625;51.212;5.952;2023-04-15T01:41:29;6.81;71.18
72591;SHT31;60625;51.212;5.952;2023-04-15T01:46:30;6.76;71.31
72591;SHT31;60625;51.212;5.952;2023-04-15T01:51:30;6.74;71.44
72591;SHT31;60625;51.212;5.952;2023-04-15T01:56:31;6.72;71.61
72591;SHT31;60625;51.212;5.952;2023-04-15T02:01:32;6.71;71.66
72591;SHT31;60625;51.212;5.952;2023-04-15T02:06:33;6.70;71.69
72591;SHT31;60625;51.212;5.952;2023-04-15T02:11:33;6.72;71.89
72591;SHT31;60625;51.212;5.952;2023-04-15T02:16:37;6.71;72.00
72591;SHT31;60625;51.212;5.952;2023-04-15T02:21:37;6.71;72.10
72591;SHT31;60625;51.212;5.952;2023-04-15T02:26:39;6.67;72.02
72591;SHT31;60625;51.212;5.952;2023-04-15T02:31:39;6.63;71.95
72591;SHT31;60625;51.212;5.952;2023-04-15T02:36:41;6.58;71.85
72591;SHT31;60625;51.212;5.952;2023-04-15T02:41:41;6.53;71.77
72591;SHT31;60625;51.212;5.952;2023-04-15T02:46:43;6.47;71.89
72591;SHT31;60625;51.212;5.952;2023-04-15T02:51:46;6.44;71.94
72591;SHT31;60625;51.212;5.952;2023-04-15T02:56:51;6.35;72.20
72591;SHT31;60625;51.212;5.952;2023-04-15T03:01:54;6.28;72.30
72591;SHT31;60625;51.212;5.952;2023-04-15T03:07:00;6.23;72.35
72591;SHT31;60625;51.212;5.952;2023-04-15T03:12:01;6.16;72.51
72591;SHT31;60625;51.212;5.952;2023-04-15T03:17:03;6.15;72.53
72591;SHT31;60625;51.212;5.952;2023-04-15T03:22:03;6.12;72.59
72591;SHT31;60625;51.212;5.952;2023-04-15T03:27:04;6.07;72.96
72591;SHT31;60625;51.212;5.952;2023-04-15T03:32:08;6.01;73.16
72591;SHT31;60625;51.212;5.952;2023-04-15T03:37:08;5.95;73.26
72591;SHT31;60625;51.212;5.952;2023-04-15T03:42:09;5.88;73.19
72591;SHT31;60625;51.212;5.952;2023-04-15T03:47:10;5.82;73.39
72591;SHT31;60625;51.212;5.952;2023-04-15T03:52:10;5.79;73.44
72591;SHT31;60625;51.212;5.952;2023-04-15T03:57:11;5.71;73.72
72591;SHT31;60625;51.212;5.952;2023-04-15T04:02:11;5.67;73.61
72591;SHT31;60625;51.212;5.952;2023-04-15T04:07:15;5.63;73.54
72591;SHT31;60625;51.212;5.952;2023-04-15T04:12:16;5.60;73.59
72591;SHT31;60625;51.212;5.952;2023-04-15T04:17:16;5.61;73.61
72591;SHT31;60625;51.212;5.952;2023-04-15T04:22:17;5.61;73.67
72591;SHT31;60625;51.212;5.952;2023-04-15T04:27:23;5.63;73.64
72591;SHT31;60625;51.212;5.952;2023-04-15T04:32:24;5.61;73.66
72591;SHT31;60625;51.212;5.952;2023-04-15T04:37:25;5.58;74.04
72591;SHT31;60625;51.212;5.952;2023-04-15T04:42:25;5.57;74.15
72591;SHT31;60625;51.212;5.952;2023-04-15T04:47:26;5.55;74.40
72591;SHT31;60625;51.212;5.952;2023-04-15T04:52:27;5.54;74.56
72591;SHT31;60625;51.212;5.952;2023-04-15T04:57:27;5.51;74.55
72591;SHT31;60625;51.212;5.952;2023-04-15T05:02:28;5.48;74.80
72591;SHT31;60625;51.212;5.952;2023-04-15T05:07:28;5.45;75.15
72591;SHT31;60625;51.212;5.952;2023-04-15T05:12:29;5.44;75.50
72591;SHT31;60625;51.212;5.952;2023-04-15T05:17:29;5.40;75.72
72591;SHT31;60625;51.212;5.952;2023-04-15T05:22:32;5.42;76.33
72591;SHT31;60625;51.212;5.952;2023-04-15T05:27:32;5.47;76.70
72591;SHT31;60625;51.212;5.952;2023-04-15T05:32:33;5.58;76.83
72591;SHT31;60625;51.212;5.952;2023-04-15T05:37:34;5.69;76.90
72591;SHT31;60625;51.212;5.952;2023-04-15T05:42:34;5.82;77.09
72591;SHT31;60625;51.212;5.952;2023-04-15T05:47:35;5.96;77.13
72591;SHT31;60625;51.212;5.952;2023-04-15T05:52:36;6.09;77.25
72591;SHT31;60625;51.212;5.952;2023-04-15T05:57:37;6.20;77.42
72591;SHT31;60625;51.212;5.952;2023-04-15T06:02:38;6.30;77.61
72591;SHT31;60625;51.212;5.952;2023-04-15T06:07:38;6.36;77.92
72591;SHT31;60625;51.212;5.952;2023-04-15T06:12:39;6.42;78.17
72591;SHT31;60625;51.212;5.952;2023-04-15T06:17:39;6.49;78.24
72591;SHT31;60625;51.212;5.952;2023-04-15T06:22:39;6.56;78.36
72591;SHT31;60625;51.212;5.952;2023-04-15T06:27:40;6.65;78.58
72591;SHT31;60625;51.212;5.952;2023-04-15T06:32:41;6.76;78.78
72591;SHT31;60625;51.212;5.952;2023-04-15T06:37:42;6.91;79.20
72591;SHT31;60625;51.212;5.952;2023-04-15T06:42:42;7.12;79.39
72591;SHT31;60625;51.212;5.952;2023-04-15T06:47:42;7.34;79.50
72591;SHT31;60625;51.212;5.952;2023-04-15T06:52:43;7.57;79.35
72591;SHT31;60625;51.212;5.952;2023-04-15T06:57:44;7.79;79.20
72591;SHT31;60625;51.212;5.952;2023-04-15T07:02:44;7.97;79.50
72591;SHT31;60625;51.212;5.952;2023-04-15T07:07:45;8.14;78.58
72591;SHT31;60625;51.212;5.952;2023-04-15T07:12:46;8.34;78.71
72591;SHT31;60625;51.212;5.952;2023-04-15T07:17:48;8.54;78.47
72591;SHT31;60625;51.212;5.952;2023-04-15T07:22:49;8.73;77.76
72591;SHT31;60625;51.212;5.952;2023-04-15T07:27:49;8.91;77.58
72591;SHT31;60625;51.212;5.952;2023-04-15T07:32:49;9.10;77.08
72591;SHT31;60625;51.212;5.952;2023-04-15T07:37:50;9.30;77.56
72591;SHT31;60625;51.212;5.952;2023-04-15T07:42:51;9.55;76.53
72591;SHT31;60625;51.212;5.952;2023-04-15T07:47:51;9.79;76.11
72591;SHT31;60625;51.212;5.952;2023-04-15T07:52:52;9.94;75.38
72591;SHT31;60625;51.212;5.952;2023-04-15T07:57:53;10.05;74.82
72591;SHT31;60625;51.212;5.952;2023-04-15T08:02:53;10.20;74.71
72591;SHT31;60625;51.212;5.952;2023-04-15T08:07:56;10.29;74.49
72591;SHT31;60625;51.212;5.952;2023-04-15T08:12:57;10.36;73.36
72591;SHT31;60625;51.212;5.952;2023-04-15T08:17:58;10.43;72.83
72591;SHT31;60625;51.212;5.952;2023-04-15T08:23:00;10.52;72.44
72591;SHT31;60625;51.212;5.952;2023-04-15T08:28:03;10.61;71.29
72591;SHT31;60625;51.212;5.952;2023-04-15T08:33:06;10.72;70.97
72591;SHT31;60625;51.212;5.952;2023-04-15T08:38:07;10.83;70.39
72591;SHT31;60625;51.212;5.952;2023-04-15T08:43:26;10.99;70.44
72591;SHT31;60625;51.212;5.952;2023-04-15T08:48:31;11.16;69.82
72591;SHT31;60625;51.212;5.952;2023-04-15T08:53:34;11.36;69.04
72591;SHT31;60625;51.212;5.952;2023-04-15T08:58:35;11.58;67.58
72591;SHT31;60625;51.212;5.952;2023-04-15T09:03:36;11.79;66.92
72591;SHT31;60625;51.212;5.952;2023-04-15T09:08:37;12.00;67.83
72591;SHT31;60625;51.212;5.952;2023-04-15T09:13:38;12.12;65.89
72591;SHT31;60625;51.212;5.952;2023-04-15T09:18:40;12.08;64.57
72591;SHT31;60625;51.212;5.952;2023-04-15T09:23:56;12.09;63.90
72591;SHT31;60625;51.212;5.952;2023-04-15T09:29:03;12.42;65.69
72591;SHT31;60625;51.212;5.952;2023-04-15T09:34:13;12.73;64.22
72591;SHT31;60625;51.212;5.952;2023-04-15T09:39:14;12.88;61.03
72591;SHT31;60625;51.212;5.952;2023-04-15T09:44:24;12.94;59.23
72591;SHT31;60625;51.212;5.952;2023-04-15T09:49:26;13.10;59.31
72591;SHT31;60625;51.212;5.952;2023-04-15T09:54:33;13.27;58.25
72591;SHT31;60625;51.212;5.952;2023-04-15T09:59:36;13.45;57.74
72591;SHT31;60625;51.212;5.952;2023-04-15T10:04:39;13.57;57.15
72591;SHT31;60625;51.212;5.952;2023-04-15T10:09:41;13.73;57.39
72591;SHT31;60625;51.212;5.952;2023-04-15T10:14:47;13.76;56.91
72591;SHT31;60625;51.212;5.952;2023-04-15T10:19:59;13.75;56.19
72591;SHT31;60625;51.212;5.952;2023-04-15T10:25:02;13.85;58.01
72591;SHT31;60625;51.212;5.952;2023-04-15T10:30:03;13.87;56.19
72591;SHT31;60625;51.212;5.952;2023-04-15T10:35:05;13.90;54.97
72591;SHT31;60625;51.212;5.952;2023-04-15T10:40:24;13.91;55.51
72591;SHT31;60625;51.212;5.952;2023-04-15T10:45:33;13.98;54.96
72591;SHT31;60625;51.212;5.952;2023-04-15T10:50:36;14.06;54.56
72591;SHT31;60625;51.212;5.952;2023-04-15T10:55:38;14.12;54.59
72591;SHT31;60625;51.212;5.952;2023-04-15T11:00:39;13.96;54.67
72591;SHT31;60625;51.212;5.952;2023-04-15T11:05:52;13.82;55.26
72591;SHT31;60625;51.212;5.952;2023-04-15T11:10:53;13.75;55.63
72591;SHT31;60625;51.212;5.952;2023-04-15T11:15:55;13.80;55.77
72591;SHT31;60625;51.212;5.952;2023-04-15T11:21:01;13.95;54.78
72591;SHT31;60625;51.212;5.952;2023-04-15T11:26:06;14.00;53.88
72591;SHT31;60625;51.212;5.952;2023-04-15T11:31:15;14.14;53.24
72591;SHT31;60625;51.212;5.952;2023-04-15T11:36:17;14.20;53.20
72591;SHT31;60625;51.212;5.952;2023-04-15T11:41:21;14.10;54.49
72591;SHT31;60625;51.212;5.952;2023-04-15T11:46:27;14.21;55.24
72591;SHT31;60625;51.212;5.952;2023-04-15T11:51:31;14.31;55.01
72591;SHT31;60625;51.212;5.952;2023-04-15T11:56:41;14.54;55.33
72591;SHT31;60625;51.212;5.952;2023-04-15T12:01:51;14.70;54.78
72591;SHT31;60625;51.212;5.952;2023-04-15T12:06:51;14.83;54.82
72591;SHT31;60625;51.212;5.952;2023-04-15T12:11:55;14.84;54.38
72591;SHT31;60625;51.212;5.952;2023-04-15T12:16:58;14.93;54.12
72591;SHT31;60625;51.212;5.952;2023-04-15T12:22:05;14.94;54.59
72591;SHT31;60625;51.212;5.952;2023-04-15T12:27:12;14.88;54.37
72591;SHT31;60625;51.212;5.952;2023-04-15T12:32:15;14.83;53.91
72591;SHT31;60625;51.212;5.952;2023-04-15T12:37:19;14.90;52.78
72591;SHT31;60625;51.212;5.952;2023-04-15T12:42:20;14.93;51.49
72591;SHT31;60625;51.212;5.952;2023-04-15T12:47:21;14.94;51.99
72591;SHT31;60625;51.212;5.952;2023-04-15T12:52:22;14.90;52.47
72591;SHT31;60625;51.212;5.952;2023-04-15T12:57:24;15.06;52.13
72591;SHT31;60625;51.212;5.952;2023-04-15T13:02:25;15.05;51.90
72591;SHT31;60625;51.212;5.952;2023-04-15T13:07:27;15.12;50.76
72591;SHT31;60625;51.212;5.952;2023-04-15T13:12:28;15.27;49.59
72591;SHT31;60625;51.212;5.952;2023-04-15T13:17:30;15.35;50.49
72591;SHT31;60625;51.212;5.952;2023-04-15T13:22:30;15.42;50.13
72591;SHT31;60625;51.212;5.952;2023-04-15T13:27:31;15.28;50.03
72591;SHT31;60625;51.212;5.952;2023-04-15T13:32:31;15.18;50.65
72591;SHT31;60625;51.212;5.952;2023-04-15T13:37:32;15.15;50.56
72591;SHT31;60625;51.212;5.952;2023-04-15T13:42:32;15.44;51.31
72591;SHT31;60625;51.212;5.952;2023-04-15T13:47:33;15.54;50.32
72591;SHT31;60625;51.212;5.952;2023-04-15T13:52:34;15.47;50.49
72591;SHT31;60625;51.212;5.952;2023-04-15T13:57:34;15.65;49.93
72591;SHT31;60625;51.212;5.952;2023-04-15T14:02:35;15.70;50.15
72591;SHT31;60625;51.212;5.952;2023-04-15T14:07:35;15.62;49.38
72591;SHT31;60625;51.212;5.952;2023-04-15T14:12:36;15.52;50.01
72591;SHT31;60625;51.212;5.952;2023-04-15T14:17:36;15.40;49.90
72591;SHT31;60625;51.212;5.952;2023-04-15T14:22:38;15.29;49.70
72591;SHT31;60625;51.212;5.952;2023-04-15T14:27:39;15.11;50.87
72591;SHT31;60625;51.212;5.952;2023-04-15T14:32:39;15.07;51.17
72591;SHT31;60625;51.212;5.952;2023-04-15T14:37:40;15.00;50.95
72591;SHT31;60625;51.212;5.952;2023-04-15T14:42:40;14.86;49.40
72591;SHT31;60625;51.212;5.952;2023-04-15T14:47:41;14.78;50.63
72591;SHT31;60625;51.212;5.952;2023-04-15T14:52:41;14.71;51.72
72591;SHT31;60625;51.212;5.952;2023-04-15T14:57:42;14.61;52.35
72591;SHT31;60625;51.212;5.952;2023-04-15T15:02:43;14.59;52.12
72591;SHT31;60625;51.212;5.952;2023-04-15T15:07:43;14.46;52.65
72591;SHT31;60625;51.212;5.952;2023-04-15T15:12:43;14.43;52.96
72591;SHT31;60625;51.212;5.952;2023-04-15T15:17:44;14.46;53.72
72591;SHT31;60625;51.212;5.952;2023-04-15T15:22:44;14.58;53.26
72591;SHT31;60625;51.212;5.952;2023-04-15T15:27:45;14.67;52.12
72591;SHT31;60625;51.212;5.952;2023-04-15T15:32:46;14.71;52.18
72591;SHT31;60625;51.212;5.952;2023-04-15T15:37:46;14.67;51.68
72591;SHT31;60625;51.212;5.952;2023-04-15T15:42:47;14.71;52.06
72591;SHT31;60625;51.212;5.952;2023-04-15T15:47:50;14.60;52.35
72591;SHT31;60625;51.212;5.952;2023-04-15T15:52:51;14.50;52.60
72591;SHT31;60625;51.212;5.952;2023-04-15T15:57:52;14.31;53.01
72591;SHT31;60625;51.212;5.952;2023-04-15T16:02:56;14.17;53.22
72591;SHT31;60625;51.212;5.952;2023-04-15T16:07:57;13.96;54.03
72591;SHT31;60625;51.212;5.952;2023-04-15T16:12:57;13.84;54.10
72591;SHT31;60625;51.212;5.952;2023-04-15T16:17:58;13.86;53.70
72591;SHT31;60625;51.212;5.952;2023-04-15T16:22:59;13.79;53.85
72591;SHT31;60625;51.212;5.952;2023-04-15T16:28:08;13.69;54.28
72591;SHT31;60625;51.212;5.952;2023-04-15T16:33:10;13.59;55.31
72591;SHT31;60625;51.212;5.952;2023-04-15T16:38:11;13.51;56.21
72591;SHT31;60625;51.212;5.952;2023-04-15T16:43:11;13.45;56.38
72591;SHT31;60625;51.212;5.952;2023-04-15T16:48:12;13.30;57.06
72591;SHT31;60625;51.212;5.952;2023-04-15T16:53:13;13.21;57.29
72591;SHT31;60625;51.212;5.952;2023-04-15T16:58:14;13.06;58.03
72591;SHT31;60625;51.212;5.952;2023-04-15T17:03:15;12.92;58.80
72591;SHT31;60625;51.212;5.952;2023-04-15T17:08:16;12.74;59.81
72591;SHT31;60625;51.212;5.952;2023-04-15T17:13:16;12.55;60.63
72591;SHT31;60625;51.212;5.952;2023-04-15T17:18:17;12.37;61.22
72591;SHT31;60625;51.212;5.952;2023-04-15T17:23:17;12.25;61.53
72591;SHT31;60625;51.212;5.952;2023-04-15T17:28:18;12.10;61.88
72591;SHT31;60625;51.212;5.952;2023-04-15T17:33:18;11.98;62.38
72591;SHT31;60625;51.212;5.952;2023-04-15T17:38:19;11.81;63.04
72591;SHT31;60625;51.212;5.952;2023-04-15T17:43:19;11.78;63.54
72591;SHT31;60625;51.212;5.952;2023-04-15T17:48:20;11.77;63.67
72591;SHT31;60625;51.212;5.952;2023-04-15T17:53:20;11.76;64.07
72591;SHT31;60625;51.212;5.952;2023-04-15T17:58:21;11.73;64.15
72591;SHT31;60625;51.212;5.952;2023-04-15T18:03:21;11.65;64.38
72591;SHT31;60625;51.212;5.952;2023-04-15T18:08:22;11.62;64.43
72591;SHT31;60625;51.212;5.952;2023-04-15T18:13:22;11.54;64.71
72591;SHT31;60625;51.212;5.952;2023-04-15T18:18:23;11.42;64.92
72591;SHT31;60625;51.212;5.952;2023-04-15T18:23:24;11.32;65.29
72591;SHT31;60625;51.212;5.952;2023-04-15T18:28:24;11.30;65.36
72591;SHT31;60625;51.212;5.952;2023-04-15T18:33:25;11.21;65.62
72591;SHT31;60625;51.212;5.952;2023-04-15T18:38:26;11.08;65.91
72591;SHT31;60625;51.212;5.952;2023-04-15T18:43:27;10.96;66.17
72591;SHT31;60625;51.212;5.952;2023-04-15T18:48:27;10.90;66.51
72591;SHT31;60625;51.212;5.952;2023-04-15T18:53:28;10.81;66.68
72591;SHT31;60625;51.212;5.952;2023-04-15T18:58:28;10.75;67.11
72591;SHT31;60625;51.212;5.952;2023-04-15T19:03:29;10.67;68.06
72591;SHT31;60625;51.212;5.952;2023-04-15T19:08:30;10.57;68.93
72591;SHT31;60625;51.212;5.952;2023-04-15T19:13:31;10.53;69.57
72591;SHT31;60625;51.212;5.952;2023-04-15T19:18:31;10.38;70.56
72591;SHT31;60625;51.212;5.952;2023-04-15T19:23:32;10.26;71.67
72591;SHT31;60625;51.212;5.952;2023-04-15T19:28:32;10.15;72.58
72591;SHT31;60625;51.212;5.952;2023-04-15T19:33:33;10.06;73.01
72591;SHT31;60625;51.212;5.952;2023-04-15T19:38:34;9.98;73.75
72591;SHT31;60625;51.212;5.952;2023-04-15T19:43:35;9.88;74.47
72591;SHT31;60625;51.212;5.952;2023-04-15T19:48:35;9.79;75.10
72591;SHT31;60625;51.212;5.952;2023-04-15T19:53:36;9.71;75.55
72591;SHT31;60625;51.212;5.952;2023-04-15T19:58:36;9.64;76.00
72591;SHT31;60625;51.212;5.952;2023-04-15T20:03:37;9.59;76.18
72591;SHT31;60625;51.212;5.952;2023-04-15T20:08:40;9.55;76.63
72591;SHT31;60625;51.212;5.952;2023-04-15T20:13:41;9.50;76.82
72591;SHT31;60625;51.212;5.952;2023-04-15T20:18:41;9.45;77.08
72591;SHT31;60625;51.212;5.952;2023-04-15T20:23:41;9.41;77.34
72591;SHT31;60625;51.212;5.952;2023-04-15T20:28:42;9.35;77.54
72591;SHT31;60625;51.212;5.952;2023-04-15T20:33:43;9.31;77.67
72591;SHT31;60625;51.212;5.952;2023-04-15T20:38:43;9.29;77.51
72591;SHT31;60625;51.212;5.952;2023-04-15T20:43:44;9.31;77.58
72591;SHT31;60625;51.212;5.952;2023-04-15T20:48:44;9.24;77.96
72591;SHT31;60625;51.212;5.952;2023-04-15T20:53:45;9.16;78.34
72591;SHT31;60625;51.212;5.952;2023-04-15T20:58:45;9.10;78.58
72591;SHT31;60625;51.212;5.952;2023-04-15T21:03:46;9.07;78.89
72591;SHT31;60625;51.212;5.952;2023-04-15T21:08:46;8.94;79.63
72591;SHT31;60625;51.212;5.952;2023-04-15T21:13:47;8.88;79.92
72591;SHT31;60625;51.212;5.952;2023-04-15T21:18:47;8.85;80.30
72591;SHT31;60625;51.212;5.952;2023-04-15T21:23:48;8.76;80.65
72591;SHT31;60625;51.212;5.952;2023-04-15T21:28:48;8.76;81.13
72591;SHT31;60625;51.212;5.952;2023-04-15T21:33:48;8.74;81.36
72591;SHT31;60625;51.212;5.952;2023-04-15T21:38:49;8.67;81.83
72591;SHT31;60625;51.212;5.952;2023-04-15T21:43:49;8.63;82.14
72591;SHT31;60625;51.212;5.952;2023-04-15T21:48:53;8.61;82.25
72591;SHT31;60625;51.212;5.952;2023-04-15T21:53:54;8.59;82.61
72591;SHT31;60625;51.212;5.952;2023-04-15T21:58:55;8.54;82.70
72591;SHT31;60625;51.212;5.952;2023-04-15T22:03:56;8.56;82.63
72591;SHT31;60625;51.212;5.952;2023-04-15T22:08:57;8.60;82.54
72591;SHT31;60625;51.212;5.952;2023-04-15T22:13:57;8.59;82.62
72591;SHT31;60625;51.212;5.952;2023-04-15T22:18:58;8.56;82.63
72591;SHT31;60625;51.212;5.952;2023-04-15T22:23:59;8.57;82.64
72591;SHT31;60625;51.212;5.952;2023-04-15T22:28:59;8.63;82.52
72591;SHT31;60625;51.212;5.952;2023-04-15T22:34:00;8.59;82.58
72591;SHT31;60625;51.212;5.952;2023-04-15T22:39:00;8.60;82.54
72591;SHT31;60625;51.212;5.952;2023-04-15T22:44:01;8.58;82.51
72591;SHT31;60625;51.212;5.952;2023-04-15T22:49:01;8.64;82.46
72591;SHT31;60625;51.212;5.952;2023-04-15T22:54:02;8.64;82.37
72591;SHT31;60625;51.212;5.952;2023-04-15T22:59:02;8.61;82.44
72591;SHT31;60625;51.212;5.952;2023-04-15T23:04:03;8.63;82.39
72591;SHT31;60625;51.212;5.952;2023-04-15T23:09:04;8.62;82.37
72591;SHT31;60625;51.212;5.952;2023-04-15T23:14:04;8.64;82.36
72591;SHT31;60625;51.212;5.952;2023-04-15T23:19:05;8.65;82.25
72591;SHT31;60625;51.212;5.952;2023-04-15T23:24:05;8.67;82.25
72591;SHT31;60625;51.212;5.952;2023-04-15T23:29:06;8.65;82.25
72591;SHT31;60625;51.212;5.952;2023-04-15T23:34:08;8.66;82.18
72591;SHT31;60625;51.212;5.952;2023-04-15T23:39:08;8.69;82.13
72591;SHT31;60625;51.212;5.952;2023-04-15T23:44:09;8.70;82.11
72591;SHT31;60625;51.212;5.952;2023-04-15T23:49:09;8.70;82.13
72591;SHT31;60625;51.212;5.952;2023-04-15T23:54:09;8.70;82.13
72591;SHT31;60625;51.212;5.952;2023-04-15T23:59:10;8.72;82.08
